createdAt,value
2018-10-12T00:00:17.306Z,11.45
2018-10-12T00:02:46.327Z,11.38
2018-10-12T00:05:15.268Z,11.31
2018-10-12T00:07:44.206Z,11.28
2018-10-12T00:10:13.163Z,11.27
2018-10-12T00:12:42.433Z,11.25
2018-10-12T00:15:11.574Z,11.27
2018-10-12T00:17:40.513Z,11.27
2018-10-12T00:20:09.961Z,11.24
2018-10-12T00:22:38.939Z,11.19
2018-10-12T00:25:08.213Z,11.15
2018-10-12T00:27:37.163Z,11.07
2018-10-12T00:30:06.082Z,11.06
2018-10-12T00:32:35.025Z,11.07
2018-10-12T00:35:04.111Z,11.07
2018-10-12T00:37:33.110Z,11.07
2018-10-12T00:40:02.047Z,11.03
2018-10-12T00:42:30.988Z,11.02
2018-10-12T00:44:59.944Z,10.98
2018-10-12T00:47:28.882Z,10.95
2018-10-12T00:49:57.831Z,10.92
2018-10-12T00:52:26.772Z,10.89
2018-10-12T00:54:55.791Z,10.83
2018-10-12T00:57:24.779Z,10.75
2018-10-12T00:59:53.789Z,10.70
2018-10-12T01:02:22.790Z,10.70
2018-10-12T01:04:51.751Z,10.66
2018-10-12T01:07:20.708Z,10.57
2018-10-12T01:09:49.669Z,10.42
2018-10-12T01:12:32.699Z,10.39
2018-10-12T01:15:02.123Z,10.44
2018-10-12T01:17:31.451Z,10.46
2018-10-12T01:20:00.410Z,10.54
2018-10-12T01:22:30.153Z,10.58
2018-10-12T01:25:00.356Z,10.63
2018-10-12T01:27:29.494Z,10.67
2018-10-12T01:29:58.515Z,10.62
2018-10-12T01:32:32.626Z,10.55
2018-10-12T01:35:01.652Z,10.52
2018-10-12T01:37:30.610Z,10.49
2018-10-12T01:39:59.538Z,10.39
2018-10-12T01:42:28.541Z,10.42
2018-10-12T01:44:57.807Z,10.39
2018-10-12T01:47:26.763Z,10.33
2018-10-12T01:49:55.743Z,10.25
2018-10-12T01:52:24.753Z,10.22
2018-10-12T01:54:53.702Z,10.19
2018-10-12T01:57:22.658Z,10.15
2018-10-12T01:59:51.618Z,10.14
2018-10-12T02:02:20.594Z,10.14
2018-10-12T02:04:49.545Z,10.18
2018-10-12T02:07:18.514Z,10.18
2018-10-12T02:09:47.563Z,10.13
2018-10-12T02:12:16.515Z,10.18
2018-10-12T02:14:45.486Z,10.14
2018-10-12T02:17:14.445Z,10.12
2018-10-12T02:19:43.408Z,10.17
2018-10-12T02:22:12.373Z,10.16
2018-10-12T02:24:41.307Z,10.17
2018-10-12T02:27:10.334Z,10.18
2018-10-12T02:29:39.258Z,10.23
2018-10-12T02:32:08.210Z,10.30
2018-10-12T02:34:37.165Z,10.42
2018-10-12T02:37:06.186Z,10.52
2018-10-12T02:39:35.167Z,10.61
2018-10-12T02:42:04.127Z,10.66
2018-10-12T02:44:33.118Z,10.65
2018-10-12T02:47:02.098Z,10.69
2018-10-12T02:49:31.026Z,10.69
2018-10-12T02:51:59.973Z,10.76
2018-10-12T02:54:28.926Z,10.82
2018-10-12T02:56:57.873Z,10.87
2018-10-12T02:59:26.818Z,10.88
2018-10-12T03:01:55.829Z,10.88
2018-10-12T03:04:24.762Z,10.88
2018-10-12T03:06:53.711Z,10.86
2018-10-12T03:09:22.697Z,10.84
2018-10-12T03:11:51.666Z,10.79
2018-10-12T03:14:20.668Z,10.73
2018-10-12T03:16:49.613Z,10.68
2018-10-12T03:19:18.691Z,10.62
2018-10-12T03:21:47.631Z,10.57
2018-10-12T03:24:16.573Z,10.57
2018-10-12T03:26:45.570Z,10.57
2018-10-12T03:29:14.511Z,10.57
2018-10-12T03:31:43.474Z,10.59
2018-10-12T03:34:12.418Z,10.56
2018-10-12T03:36:41.476Z,10.56
2018-10-12T03:39:10.423Z,10.57
2018-10-12T03:41:39.385Z,10.57
2018-10-12T03:44:08.353Z,10.61
2018-10-12T03:46:37.295Z,10.60
2018-10-12T03:49:06.254Z,10.62
2018-10-12T03:51:35.215Z,10.59
2018-10-12T03:54:04.230Z,10.56
2018-10-12T03:56:33.162Z,10.58
2018-10-12T03:59:02.116Z,10.60
2018-10-12T04:01:31.084Z,10.60
2018-10-12T04:04:00.029Z,10.64
2018-10-12T04:06:29.210Z,10.65
2018-10-12T04:08:58.235Z,10.61
2018-10-12T04:11:27.175Z,10.56
2018-10-12T04:13:56.130Z,10.54
2018-10-12T04:16:25.126Z,10.52
2018-10-12T04:18:54.171Z,10.50
2018-10-12T04:21:23.212Z,10.43
2018-10-12T04:23:52.140Z,10.38
2018-10-12T04:26:21.103Z,10.31
2018-10-12T04:28:50.056Z,10.28
2018-10-12T04:31:19.033Z,10.19
2018-10-12T04:33:47.960Z,10.19
2018-10-12T04:36:16.902Z,10.21
2018-10-12T04:38:56.811Z,10.15
2018-10-12T04:41:25.758Z,10.11
2018-10-12T04:43:56.078Z,10.12
2018-10-12T04:46:31.607Z,10.09
2018-10-12T04:49:01.438Z,10.08
2018-10-12T04:51:38.089Z,10.11
2018-10-12T04:54:07.540Z,10.14
2018-10-12T04:56:36.462Z,10.17
2018-10-12T04:59:05.394Z,10.23
2018-10-12T05:01:34.345Z,10.27
2018-10-12T05:04:03.311Z,10.29
2018-10-12T05:06:32.551Z,10.32
2018-10-12T05:09:01.518Z,10.35
2018-10-12T05:11:30.473Z,10.39
2018-10-12T05:13:59.402Z,10.46
2018-10-12T05:16:28.358Z,10.52
2018-10-12T05:18:57.272Z,10.53
2018-10-12T05:21:26.378Z,10.52
2018-10-12T05:23:55.360Z,10.50
2018-10-12T05:26:24.288Z,10.45
2018-10-12T05:28:53.286Z,10.44
2018-10-12T05:31:22.350Z,10.42
2018-10-12T05:33:51.308Z,10.43
2018-10-12T05:36:20.247Z,10.44
2018-10-12T05:38:49.246Z,10.49
2018-10-12T05:41:18.185Z,10.51
2018-10-12T05:43:47.193Z,10.55
2018-10-12T05:46:16.090Z,10.52
2018-10-12T05:48:56.096Z,10.54
2018-10-12T05:51:25.047Z,10.52
2018-10-12T05:53:53.977Z,10.54
2018-10-12T05:56:24.886Z,10.53
2018-10-12T05:58:54.047Z,10.58
2018-10-12T06:01:23.124Z,10.64
2018-10-12T06:03:52.013Z,10.67
2018-10-12T06:06:24.840Z,10.76
2018-10-12T06:08:53.826Z,10.88
2018-10-12T06:11:22.894Z,11.00
2018-10-12T06:13:51.841Z,11.10
2018-10-12T06:16:20.846Z,11.19
2018-10-12T06:18:49.810Z,11.28
2018-10-12T06:21:18.746Z,11.27
2018-10-12T06:23:47.737Z,11.25
2018-10-12T06:26:16.762Z,11.28
2018-10-12T06:28:45.678Z,11.40
2018-10-12T06:31:14.637Z,11.53
2018-10-12T06:33:43.563Z,11.56
2018-10-12T06:36:12.537Z,11.73
2018-10-12T06:38:41.482Z,11.83
2018-10-12T06:41:10.540Z,11.87
2018-10-12T06:43:39.436Z,11.96
2018-10-12T06:46:08.365Z,12.11
2018-10-12T06:48:37.362Z,12.30
2018-10-12T06:51:06.330Z,12.51
2018-10-12T06:53:35.270Z,12.72
2018-10-12T06:56:04.193Z,12.84
2018-10-12T06:58:33.185Z,13.05
2018-10-12T07:01:02.120Z,13.23
2018-10-12T07:03:31.065Z,13.52
2018-10-12T07:06:00.034Z,13.82
2018-10-12T07:08:28.954Z,13.87
2018-10-12T07:10:57.885Z,13.94
2018-10-12T07:13:26.794Z,13.92
2018-10-12T07:15:55.853Z,14.00
2018-10-12T07:18:24.837Z,14.01
2018-10-12T07:20:53.774Z,14.08
2018-10-12T07:23:22.719Z,14.06
2018-10-12T07:25:51.753Z,14.05
2018-10-12T07:28:20.707Z,14.18
2018-10-12T07:30:49.643Z,14.28
2018-10-12T07:33:18.644Z,14.22
2018-10-12T07:35:47.629Z,14.19
2018-10-12T07:38:16.990Z,14.20
2018-10-12T07:40:45.583Z,14.44
2018-10-12T07:43:14.511Z,14.61
2018-10-12T07:45:43.482Z,14.75
2018-10-12T07:48:12.487Z,14.89
2018-10-12T07:50:41.498Z,15.06
2018-10-12T07:53:10.459Z,15.18
2018-10-12T07:55:39.389Z,15.31
2018-10-12T07:58:08.379Z,15.45
2018-10-12T08:00:37.319Z,15.37
2018-10-12T08:03:06.279Z,15.45
2018-10-12T08:05:35.208Z,15.56
2018-10-12T08:08:04.188Z,15.46
2018-10-12T08:10:33.138Z,15.25
2018-10-12T08:13:02.082Z,15.29
2018-10-12T08:15:31.135Z,15.34
2018-10-12T08:18:00.090Z,15.48
2018-10-12T08:20:29.075Z,15.63
2018-10-12T08:22:58.007Z,15.83
2018-10-12T08:25:27.024Z,16.18
2018-10-12T08:27:55.977Z,16.37
2018-10-12T08:30:24.976Z,16.47
2018-10-12T08:32:53.958Z,16.51
2018-10-12T08:35:22.929Z,16.51
2018-10-12T08:37:51.876Z,16.59
2018-10-12T08:40:20.923Z,16.65
2018-10-12T08:42:49.973Z,16.67
2018-10-12T08:45:18.906Z,16.70
2018-10-12T08:47:47.834Z,16.88
2018-10-12T08:50:16.795Z,17.00
2018-10-12T08:52:45.718Z,17.11
2018-10-12T08:55:14.785Z,17.31
2018-10-12T08:57:43.729Z,17.42
2018-10-12T09:00:12.974Z,17.43
2018-10-12T09:02:41.905Z,17.52
2018-10-12T09:05:10.918Z,17.66
2018-10-12T09:07:39.865Z,17.70
2018-10-12T09:10:09.056Z,17.70
2018-10-12T09:12:38.535Z,17.79
2018-10-12T09:15:07.798Z,17.90
2018-10-12T09:17:37.438Z,17.94
2018-10-12T09:20:06.739Z,18.12
2018-10-12T09:22:35.677Z,18.29
2018-10-12T09:25:04.595Z,18.44
2018-10-12T09:27:33.605Z,18.48
2018-10-12T09:30:02.531Z,18.54
2018-10-12T09:32:31.456Z,18.69
2018-10-12T09:35:00.382Z,18.83
2018-10-12T09:37:29.298Z,18.68
2018-10-12T09:39:58.261Z,18.52
2018-10-12T09:42:27.183Z,18.40
2018-10-12T09:44:56.169Z,18.15
2018-10-12T09:47:25.224Z,18.14
2018-10-12T09:49:54.176Z,18.23
2018-10-12T09:52:23.121Z,18.49
2018-10-12T09:54:52.066Z,18.67
2018-10-12T09:57:25.088Z,18.72
2018-10-12T09:59:54.165Z,18.92
2018-10-12T10:02:27.194Z,19.10
2018-10-12T10:05:00.214Z,19.32
2018-10-12T10:07:29.263Z,19.74
2018-10-12T10:09:58.189Z,20.29
2018-10-12T10:12:27.113Z,20.88
2018-10-12T10:14:56.085Z,21.37
2018-10-12T10:17:25.035Z,21.50
2018-10-12T10:19:54.009Z,21.65
2018-10-12T10:22:23.027Z,21.39
2018-10-12T10:24:52.007Z,21.19
2018-10-12T10:27:20.950Z,21.50
2018-10-12T10:29:50.102Z,21.51
2018-10-12T10:32:18.924Z,21.76
2018-10-12T10:34:47.850Z,21.99
2018-10-12T10:37:16.810Z,22.05
2018-10-12T10:39:45.775Z,22.10
2018-10-12T10:42:14.806Z,22.37
2018-10-12T10:44:43.758Z,22.82
2018-10-12T10:47:12.834Z,23.76
2018-10-12T10:49:41.779Z,24.32
2018-10-12T10:52:10.759Z,24.44
2018-10-12T10:54:39.710Z,24.82
2018-10-12T10:57:08.645Z,25.21
2018-10-12T10:59:37.745Z,25.11
2018-10-12T11:02:06.673Z,25.25
2018-10-12T11:04:35.667Z,24.95
2018-10-12T11:07:04.698Z,24.65
2018-10-12T11:09:33.743Z,24.46
2018-10-12T11:12:02.732Z,24.29
2018-10-12T11:14:31.695Z,24.21
2018-10-12T11:17:00.683Z,23.91
2018-10-12T11:19:29.713Z,23.59
2018-10-12T11:21:58.670Z,23.13
2018-10-12T11:24:27.724Z,22.79
2018-10-12T11:26:56.753Z,22.51
2018-10-12T11:29:25.638Z,22.48
2018-10-12T11:31:54.575Z,22.67
2018-10-12T11:34:23.679Z,22.65
2018-10-12T11:36:52.631Z,22.48
2018-10-12T11:39:21.576Z,22.38
2018-10-12T11:41:50.550Z,22.28
2018-10-12T11:44:19.495Z,22.28
2018-10-12T11:46:48.462Z,22.23
2018-10-12T11:49:17.471Z,22.16
2018-10-12T11:51:46.451Z,22.08
2018-10-12T11:54:15.408Z,22.06
2018-10-12T11:56:44.423Z,22.04
2018-10-12T11:59:13.385Z,22.02
2018-10-12T12:01:42.338Z,21.95
2018-10-12T12:04:11.320Z,21.92
2018-10-12T12:06:40.294Z,21.97
2018-10-12T12:09:09.242Z,22.10
2018-10-12T12:11:38.218Z,22.09
2018-10-12T12:14:07.270Z,21.93
2018-10-12T12:16:36.246Z,21.87
2018-10-12T12:19:05.186Z,21.83
2018-10-12T12:21:34.202Z,21.77
2018-10-12T12:24:03.150Z,21.74
2018-10-12T12:26:32.158Z,21.76
2018-10-12T12:29:01.095Z,21.85
2018-10-12T12:31:30.130Z,21.89
2018-10-12T12:33:59.081Z,21.92
2018-10-12T12:36:28.211Z,21.92
2018-10-12T12:38:57.181Z,21.74
2018-10-12T12:41:26.117Z,21.56
2018-10-12T12:43:55.093Z,21.41
2018-10-12T12:46:24.035Z,21.44
2018-10-12T12:48:53.490Z,21.51
2018-10-12T12:51:21.985Z,21.67
2018-10-12T12:53:51.071Z,21.70
2018-10-12T12:56:20.042Z,21.73
2018-10-12T12:58:49.005Z,21.72
2018-10-12T13:01:17.958Z,21.84
2018-10-12T13:03:46.922Z,21.83
2018-10-12T13:06:15.888Z,21.93
2018-10-12T13:08:44.834Z,21.99
2018-10-12T13:11:13.866Z,22.21
2018-10-12T13:13:42.859Z,22.38
2018-10-12T13:16:11.780Z,22.45
2018-10-12T13:18:40.744Z,22.49
2018-10-12T13:21:09.722Z,22.56
2018-10-12T13:23:38.701Z,22.58
2018-10-12T13:26:07.876Z,22.70
2018-10-12T13:28:36.907Z,22.78
2018-10-12T13:31:05.839Z,22.73
2018-10-12T13:33:34.817Z,22.53
2018-10-12T13:36:03.787Z,22.47
2018-10-12T13:38:32.727Z,22.35
2018-10-12T13:41:01.688Z,22.28
2018-10-12T13:43:30.627Z,22.15
2018-10-12T13:45:59.679Z,21.93
2018-10-12T13:48:28.647Z,21.83
2018-10-12T13:50:57.633Z,21.79
2018-10-12T13:53:26.613Z,21.82
2018-10-12T13:55:55.546Z,21.83
2018-10-12T13:58:24.524Z,21.91
2018-10-12T14:00:53.466Z,21.99
2018-10-12T14:03:22.411Z,21.91
2018-10-12T14:05:51.454Z,21.91
2018-10-12T14:08:20.514Z,21.96
2018-10-12T14:10:49.469Z,21.82
2018-10-12T14:13:18.401Z,21.75
2018-10-12T14:15:47.362Z,21.64
2018-10-12T14:18:16.348Z,21.56
2018-10-12T14:20:45.394Z,21.39
2018-10-12T14:23:14.339Z,21.21
2018-10-12T14:25:43.339Z,21.09
2018-10-12T14:28:12.275Z,21.00
2018-10-12T14:30:41.215Z,20.89
2018-10-12T14:33:10.166Z,20.83
2018-10-12T14:35:39.146Z,20.72
2018-10-12T14:38:08.088Z,20.56
2018-10-12T14:40:37.024Z,20.45
2018-10-12T14:43:06.072Z,20.33
2018-10-12T14:45:35.030Z,20.29
2018-10-12T14:48:03.971Z,20.17
2018-10-12T14:50:32.927Z,20.08
2018-10-12T14:53:01.947Z,19.98
2018-10-12T14:55:30.875Z,19.86
2018-10-12T14:57:59.807Z,19.73
2018-10-12T15:00:28.777Z,19.57
2018-10-12T15:02:57.712Z,19.47
2018-10-12T15:05:26.755Z,19.33
2018-10-12T15:07:55.657Z,19.21
2018-10-12T15:10:24.591Z,19.03
2018-10-12T15:12:53.539Z,18.93
2018-10-12T15:15:24.630Z,18.82
2018-10-12T15:17:54.767Z,18.71
2018-10-12T15:20:24.074Z,18.64
2018-10-12T15:22:53.066Z,18.59
2018-10-12T15:25:22.032Z,18.59
2018-10-12T15:27:51.001Z,18.57
2018-10-12T15:30:20.302Z,18.58
2018-10-12T15:32:49.229Z,18.57
2018-10-12T15:35:18.169Z,18.57
2018-10-12T15:37:47.196Z,18.57
2018-10-12T15:40:16.123Z,18.55
2018-10-12T15:42:45.081Z,18.53
2018-10-12T15:45:14.032Z,18.52
2018-10-12T15:47:42.984Z,18.50
2018-10-12T15:50:11.915Z,18.49
2018-10-12T15:52:40.863Z,18.47
2018-10-12T15:55:09.794Z,18.46
2018-10-12T15:57:38.794Z,18.45
2018-10-12T16:00:07.718Z,18.43
2018-10-12T16:02:36.659Z,18.43
2018-10-12T16:05:05.598Z,18.35
2018-10-12T16:07:34.547Z,18.32
2018-10-12T16:10:03.478Z,18.27
2018-10-12T16:12:32.398Z,18.16
2018-10-12T16:15:01.402Z,18.02
2018-10-12T16:17:30.327Z,18.05
2018-10-12T16:19:59.275Z,18.11
2018-10-12T16:22:28.293Z,18.08
2018-10-12T16:25:08.053Z,18.10
2018-10-12T16:27:37.042Z,18.07
2018-10-12T16:30:06.026Z,18.08
2018-10-12T16:32:35.026Z,18.11
2018-10-12T16:35:03.978Z,18.12
2018-10-12T16:37:32.911Z,18.18
2018-10-12T16:40:01.850Z,18.18
2018-10-12T16:42:30.854Z,18.19
2018-10-12T16:44:59.893Z,18.22
2018-10-12T16:47:28.864Z,18.22
2018-10-12T16:49:57.854Z,18.18
2018-10-12T16:52:26.787Z,18.22
2018-10-12T16:54:55.727Z,18.21
2018-10-12T16:57:26.585Z,18.17
2018-10-12T16:59:55.536Z,18.14
2018-10-12T17:02:24.553Z,18.16
2018-10-12T17:04:53.583Z,18.16
2018-10-12T17:07:22.719Z,18.16
2018-10-12T17:09:51.727Z,18.11
2018-10-12T17:12:20.690Z,18.09
2018-10-12T17:14:49.760Z,18.04
2018-10-12T17:17:18.792Z,17.98
2018-10-12T17:19:47.754Z,17.92
2018-10-12T17:22:16.682Z,17.83
2018-10-12T17:24:45.806Z,17.77
2018-10-12T17:27:14.759Z,17.71
2018-10-12T17:29:43.803Z,17.69
2018-10-12T17:32:12.873Z,17.61
2018-10-12T17:34:41.820Z,17.46
2018-10-12T17:37:10.784Z,17.29
2018-10-12T17:39:39.710Z,17.08
2018-10-12T17:42:15.927Z,16.92
2018-10-12T17:44:45.223Z,16.73
2018-10-12T17:47:14.875Z,16.60
2018-10-12T17:49:44.194Z,16.48
2018-10-12T17:52:13.234Z,16.41
2018-10-12T17:54:42.241Z,16.32
2018-10-12T17:57:11.174Z,16.26
2018-10-12T17:59:40.197Z,16.20
2018-10-12T18:02:09.236Z,16.17
2018-10-12T18:04:38.349Z,16.15
2018-10-12T18:07:07.395Z,16.12
2018-10-12T18:09:36.329Z,16.10
2018-10-12T18:12:05.280Z,16.08
2018-10-12T18:14:34.215Z,16.08
2018-10-12T18:17:03.239Z,16.06
2018-10-12T18:19:32.164Z,16.03
2018-10-12T18:22:01.110Z,16.04
2018-10-12T18:24:30.073Z,16.05
2018-10-12T18:26:59.201Z,16.07
2018-10-12T18:29:28.328Z,16.07
2018-10-12T18:31:57.289Z,16.08
2018-10-12T18:34:26.367Z,16.08
2018-10-12T18:36:55.396Z,16.06
2018-10-12T18:39:24.403Z,16.04
2018-10-12T18:41:53.354Z,15.99
2018-10-12T18:44:22.332Z,15.99
2018-10-12T18:46:51.274Z,15.97
2018-10-12T18:49:20.198Z,15.96
2018-10-12T18:51:49.271Z,15.95
2018-10-12T18:54:18.246Z,15.93
2018-10-12T18:56:47.210Z,15.88
2018-10-12T18:59:16.249Z,15.87
2018-10-12T19:01:45.230Z,15.85
2018-10-12T19:04:14.356Z,15.84
2018-10-12T19:06:43.388Z,15.83
2018-10-12T19:09:12.321Z,15.82
2018-10-12T19:11:41.750Z,15.80
2018-10-12T19:14:10.759Z,15.79
2018-10-12T19:16:39.846Z,15.76
2018-10-12T19:19:09.000Z,15.73
2018-10-12T19:21:38.042Z,15.71
2018-10-12T19:24:07.156Z,15.66
2018-10-12T19:26:36.091Z,15.62
2018-10-12T19:29:05.042Z,15.60
2018-10-12T19:31:34.097Z,15.57
2018-10-12T19:34:03.110Z,15.55
2018-10-12T19:36:32.057Z,15.51
2018-10-12T19:39:01.021Z,15.48
2018-10-12T19:41:29.988Z,15.46
2018-10-12T19:43:58.945Z,15.43
2018-10-12T19:46:27.882Z,15.39
2018-10-12T19:48:56.825Z,15.36
2018-10-12T19:51:25.848Z,15.31
2018-10-12T19:53:54.774Z,15.26
2018-10-12T19:56:23.791Z,15.21
2018-10-12T19:58:52.755Z,15.16
2018-10-12T20:01:21.686Z,15.11
2018-10-12T20:03:50.630Z,15.06
2018-10-12T20:06:19.600Z,14.95
2018-10-12T20:08:48.593Z,14.87
2018-10-12T20:11:17.523Z,14.78
2018-10-12T20:13:46.480Z,14.69
2018-10-12T20:16:15.456Z,14.61
2018-10-12T20:18:44.428Z,14.57
2018-10-12T20:21:13.370Z,14.48
2018-10-12T20:23:42.313Z,14.39
2018-10-12T20:26:11.323Z,14.30
2018-10-12T20:28:40.238Z,14.26
2018-10-12T20:31:09.324Z,14.18
2018-10-12T20:33:38.271Z,14.09
2018-10-12T20:36:07.246Z,14.02
2018-10-12T20:38:36.439Z,13.95
2018-10-12T20:41:05.631Z,13.88
2018-10-12T20:43:34.622Z,13.83
2018-10-12T20:46:03.596Z,13.75
2018-10-12T20:48:32.518Z,13.65
2018-10-12T20:51:01.468Z,13.58
2018-10-12T20:53:30.450Z,13.51
2018-10-12T20:55:59.407Z,13.46
2018-10-12T20:58:28.347Z,13.33
2018-10-12T21:00:57.351Z,13.30
2018-10-12T21:03:26.283Z,13.28
2018-10-12T21:05:55.216Z,13.26
2018-10-12T21:08:24.181Z,13.22
2018-10-12T21:10:53.112Z,13.21
2018-10-12T21:13:22.069Z,13.18
2018-10-12T21:15:51.019Z,13.15
2018-10-12T21:18:20.024Z,13.13
2018-10-12T21:20:48.955Z,13.13
2018-10-12T21:23:17.884Z,13.09
2018-10-12T21:25:46.832Z,13.04
2018-10-12T21:28:15.838Z,13.01
2018-10-12T21:30:44.754Z,12.96
2018-10-12T21:33:13.687Z,12.90
2018-10-12T21:35:42.678Z,12.80
2018-10-12T21:38:11.593Z,12.74
2018-10-12T21:40:40.548Z,12.68
2018-10-12T21:43:09.499Z,12.62
2018-10-12T21:45:38.429Z,12.54
2018-10-12T21:48:07.410Z,12.49
2018-10-12T21:50:36.385Z,12.45
2018-10-12T21:53:05.351Z,12.39
2018-10-12T21:55:34.292Z,12.32
2018-10-12T21:58:03.694Z,12.26
2018-10-12T22:00:32.827Z,12.23
2018-10-12T22:03:01.793Z,12.18
2018-10-12T22:05:30.766Z,12.15
2018-10-12T22:07:59.690Z,12.10
2018-10-12T22:10:28.684Z,12.04
2018-10-12T22:12:57.624Z,11.99
2018-10-12T22:15:26.571Z,11.91
2018-10-12T22:17:55.516Z,11.85
2018-10-12T22:20:24.446Z,11.81
2018-10-12T22:22:54.281Z,11.76
2018-10-12T22:25:23.227Z,11.73
2018-10-12T22:27:52.254Z,11.69
2018-10-12T22:30:21.190Z,11.61
2018-10-12T22:32:50.120Z,11.57
2018-10-12T22:35:19.126Z,11.53
2018-10-12T22:37:48.059Z,11.47
2018-10-12T22:40:17.012Z,11.44
2018-10-12T22:42:45.963Z,11.43
2018-10-12T22:45:14.966Z,11.34
2018-10-12T22:47:43.896Z,11.28
2018-10-12T22:50:12.836Z,11.22
2018-10-12T22:52:41.799Z,11.13
2018-10-12T22:55:10.749Z,11.03
2018-10-12T22:57:39.781Z,10.99
2018-10-12T23:00:09.001Z,10.94
2018-10-12T23:02:38.002Z,10.91
2018-10-12T23:05:07.307Z,10.85
2018-10-12T23:07:36.558Z,10.78
2018-10-12T23:10:05.610Z,10.73
2018-10-12T23:12:34.561Z,10.67
2018-10-12T23:15:03.521Z,10.62
2018-10-12T23:17:32.462Z,10.56
2018-10-12T23:20:01.475Z,10.51
2018-10-12T23:22:30.410Z,10.46
2018-10-12T23:24:59.347Z,10.42
2018-10-12T23:27:28.299Z,10.42
2018-10-12T23:29:57.242Z,10.37
2018-10-12T23:32:26.244Z,10.33
2018-10-12T23:34:55.184Z,10.31
2018-10-12T23:37:24.122Z,10.28
2018-10-12T23:39:53.066Z,10.25
2018-10-12T23:42:22.000Z,10.19
2018-10-12T23:44:50.951Z,10.17
2018-10-12T23:47:19.918Z,10.17
2018-10-12T23:49:48.873Z,10.16
2018-10-12T23:52:17.919Z,10.13
2018-10-12T23:54:47.118Z,10.08
2018-10-12T23:57:16.214Z,10.04
2018-10-12T23:59:45.146Z,10.00
